Time;durP1;ratioP1;P1;durP2;ratioP2;P2;SDS_P1;SDS_P2;PMS_P1;PMS_P2;Temp;Humidity;BMP_temperature;BMP_pressure;BME280_temperature;BME280_humidity;BME280_pressure;Samples;Min_cycle;Max_cycle;Signal;HPM_P1;HPM_P2
2022/01/01 00:00:17;;;;;;;51.85;15.63;;;;;;;;;;5036470;28;20033;-49
2022/01/01 00:02:43;;;;;;;87.05;14.80;;;;;;;;;;5033000;28;20037;-54
2022/01/01 00:05:11;;;;;;;57.60;14.32;;;;;;;;;;5035713;28;20078;-53
2022/01/01 00:07:39;;;;;;;44.53;14.27;;;;;;;;;;5031319;28;20033;-49
2022/01/01 00:10:06;;;;;;;50.13;12.93;;;;;;;;;;5029033;28;20060;-50
2022/01/01 00:12:32;;;;;;;42.90;12.25;;;;;;;;;;5029256;28;20564;-51
2022/01/01 00:14:58;;;;;;;46.25;13.63;;;;;;;;;;5025362;28;20018;-48
2022/01/01 00:17:23;;;;;;;50.47;14.35;;;;;;;;;;5018986;28;20080;-54
2022/01/01 00:19:49;;;;;;;61.95;14.15;;;;;;;;;;5030271;28;20042;-50
2022/01/01 00:22:15;;;;;;;40.40;13.63;;;;;;;;;;5031415;28;20034;-50
2022/01/01 00:24:41;;;;;;;41.60;13.20;;;;;;;;;;5026634;28;20025;-53
2022/01/01 00:27:06;;;;;;;39.40;12.15;;;;;;;;;;5028270;28;20065;-48
2022/01/01 00:29:32;;;;;;;34.38;14.18;;;;;;;;;;5030927;28;20061;-49
2022/01/01 00:31:58;;;;;;;34.50;14.82;;;;;;;;;;5033295;28;20079;-52
2022/01/01 00:34:24;;;;;;;48.30;13.48;;;;;;;;;;5029092;28;20041;-52
2022/01/01 00:36:49;;;;;;;34.30;14.15;;;;;;;;;;5030057;28;20536;-49
2022/01/01 00:39:15;;;;;;;35.30;13.55;;;;;;;;;;5026232;28;20437;-53
2022/01/01 00:41:41;;;;;;;57.88;13.75;;;;;;;;;;5025611;28;20491;-53
2022/01/01 00:44:07;;;;;;;25.30;13.25;;;;;;;;;;5032006;28;20040;-51
2022/01/01 00:46:33;;;;;;;30.85;13.65;;;;;;;;;;5031624;28;20025;-48
2022/01/01 00:48:59;;;;;;;33.72;14.18;;;;;;;;;;5027474;28;20437;-51
2022/01/01 00:51:24;;;;;;;28.88;13.93;;;;;;;;;;5037048;28;20033;-48
2022/01/01 00:53:50;;;;;;;53.80;14.10;;;;;;;;;;5027605;28;20037;-55
2022/01/01 00:56:16;;;;;;;34.58;14.05;;;;;;;;;;5034599;28;20057;-52
2022/01/01 00:58:42;;;;;;;50.17;14.02;;;;;;;;;;5027831;28;20492;-50
2022/01/01 01:01:08;;;;;;;55.53;15.57;;;;;;;;;;5029106;28;20040;-53
2022/01/01 01:03:34;;;;;;;61.05;14.90;;;;;;;;;;5032642;28;20061;-51
2022/01/01 01:06:00;;;;;;;80.18;13.82;;;;;;;;;;5029862;28;20486;-50
2022/01/01 01:08:27;;;;;;;192.50;15.30;;;;;;;;;;5025027;28;20116;-52
2022/01/01 01:10:56;;;;;;;94.20;14.20;;;;;;;;;;5027896;28;20085;-49
2022/01/01 01:13:22;;;;;;;56.55;12.93;;;;;;;;;;5021930;28;20052;-50
2022/01/01 01:15:48;;;;;;;112.32;13.32;;;;;;;;;;5023104;28;20037;-54
2022/01/01 01:18:14;;;;;;;56.00;15.07;;;;;;;;;;5028113;28;20037;-50
2022/01/01 01:20:40;;;;;;;22.00;10.77;;;;;;;;;;5030959;28;20529;-51
2022/01/01 01:23:06;;;;;;;20.23;11.05;;;;;;;;;;5018624;28;20050;-48
2022/01/01 01:25:39;;;;;;;24.42;11.88;;;;;;;;;;5025510;28;20441;-53
2022/01/01 01:28:07;;;;;;;36.30;11.15;;;;;;;;;;5026581;28;20044;-56
2022/01/01 01:30:34;;;;;;;34.50;11.55;;;;;;;;;;5026124;28;20057;-51
2022/01/01 01:33:00;;;;;;;32.42;11.63;;;;;;;;;;5028977;28;20034;-54
2022/01/01 01:35:26;;;;;;;24.55;9.90;;;;;;;;;;5023740;28;20065;-48
2022/01/01 01:37:52;;;;;;;21.88;11.05;;;;;;;;;;5028566;28;20057;-49
2022/01/01 01:40:18;;;;;;;26.60;10.15;;;;;;;;;;5027915;28;20124;-50
2022/01/01 01:42:44;;;;;;;34.42;11.82;;;;;;;;;;5026433;28;20029;-50
2022/01/01 01:45:15;;;;;;;32.35;12.00;;;;;;;;;;5025146;28;20163;-50
2022/01/01 01:47:42;;;;;;;28.80;10.98;;;;;;;;;;5027142;28;20462;-51
2022/01/01 01:50:11;;;;;;;23.27;11.65;;;;;;;;;;5023518;28;20037;-50
2022/01/01 01:52:39;;;;;;;23.30;11.80;;;;;;;;;;5028979;28;20030;-52
2022/01/01 01:55:09;;;;;;;25.70;11.82;;;;;;;;;;5023282;28;20025;-51
2022/01/01 01:57:36;;;;;;;53.13;13.18;;;;;;;;;;5026780;28;20496;-48
2022/01/01 02:00:08;;;;;;;22.20;12.30;;;;;;;;;;5029770;28;20037;-52
2022/01/01 02:02:34;;;;;;;42.90;12.68;;;;;;;;;;5028966;28;20041;-49
2022/01/01 02:05:00;;;;;;;28.50;12.13;;;;;;;;;;5029637;28;20747;-53
2022/01/01 02:07:27;;;;;;;41.35;12.70;;;;;;;;;;5025590;28;20389;-52
2022/01/01 02:09:52;;;;;;;26.23;12.43;;;;;;;;;;5024497;28;20041;-49
2022/01/01 02:12:21;;;;;;;79.55;12.43;;;;;;;;;;5024840;28;20053;-52
2022/01/01 02:17:25;;;;;;;73.45;10.88;;;;;;;;;;5027203;28;20115;-51
2022/01/01 02:19:59;;;;;;;59.08;12.43;;;;;;;;;;5021700;28;20056;-52
2022/01/01 02:22:27;;;;;;;36.65;12.07;;;;;;;;;;5023705;28;20033;-56
2022/01/01 02:24:53;;;;;;;30.13;11.18;;;;;;;;;;5021429;28;20122;-53
2022/01/01 02:27:19;;;;;;;31.70;11.45;;;;;;;;;;5035229;28;20038;-50
2022/01/01 02:29:45;;;;;;;45.42;11.43;;;;;;;;;;5035001;28;20021;-55
2022/01/01 02:32:13;;;;;;;81.47;11.25;;;;;;;;;;5022676;28;20037;-50
2022/01/01 02:34:40;;;;;;;39.90;10.80;;;;;;;;;;5028788;28;20033;-56
2022/01/01 02:37:06;;;;;;;256.58;14.63;;;;;;;;;;5026422;28;20029;-50
2022/01/01 02:39:32;;;;;;;39.92;11.45;;;;;;;;;;5025310;28;20026;-51
2022/01/01 02:41:58;;;;;;;27.15;10.35;;;;;;;;;;5026893;28;20037;-54
2022/01/01 02:44:25;;;;;;;108.85;11.48;;;;;;;;;;5023863;28;20394;-50
2022/01/01 02:46:52;;;;;;;42.08;10.60;;;;;;;;;;5021012;28;20498;-52
2022/01/01 02:49:18;;;;;;;101.75;10.50;;;;;;;;;;5027873;28;20125;-49
2022/01/01 02:51:44;;;;;;;33.78;9.20;;;;;;;;;;5027587;28;20026;-50
2022/01/01 02:54:09;;;;;;;40.25;9.70;;;;;;;;;;5032814;28;20088;-49
2022/01/01 02:56:37;;;;;;;131.10;14.05;;;;;;;;;;5035389;28;20559;-51
2022/01/01 02:59:03;;;;;;;77.18;13.38;;;;;;;;;;5032908;28;20025;-55
2022/01/01 03:01:29;;;;;;;30.20;12.20;;;;;;;;;;5022423;28;20501;-50
2022/01/01 03:03:55;;;;;;;65.68;15.50;;;;;;;;;;5030477;28;20033;-49
2022/01/01 03:06:20;;;;;;;42.33;16.85;;;;;;;;;;5039951;28;20042;-48
2022/01/01 03:08:48;;;;;;;31.42;12.05;;;;;;;;;;5034107;28;20082;-55
2022/01/01 03:11:15;;;;;;;160.98;11.60;;;;;;;;;;5037017;28;20370;-48
2022/01/01 03:13:41;;;;;;;84.90;9.98;;;;;;;;;;5033000;28;20166;-50
2022/01/01 03:16:06;;;;;;;79.97;10.35;;;;;;;;;;5036111;28;20037;-50
2022/01/01 03:18:32;;;;;;;66.15;10.52;;;;;;;;;;5025377;28;20568;-51
2022/01/01 03:20:58;;;;;;;145.38;13.07;;;;;;;;;;5034936;28;20085;-50
2022/01/01 03:23:23;;;;;;;53.97;11.40;;;;;;;;;;5029668;28;20030;-50
2022/01/01 03:25:49;;;;;;;143.35;12.90;;;;;;;;;;5026442;28;20500;-56
2022/01/01 03:28:16;;;;;;;29.58;11.05;;;;;;;;;;5032194;28;20382;-55
2022/01/01 03:30:42;;;;;;;31.20;13.65;;;;;;;;;;5025653;28;20040;-50
2022/01/01 03:33:07;;;;;;;68.28;12.63;;;;;;;;;;5030144;28;20030;-49
2022/01/01 03:35:33;;;;;;;48.65;10.63;;;;;;;;;;5030368;28;20021;-53
2022/01/01 03:37:59;;;;;;;90.35;10.20;;;;;;;;;;5032249;28;20029;-49
2022/01/01 03:40:24;;;;;;;57.70;10.80;;;;;;;;;;5027634;28;20095;-50
2022/01/01 03:42:50;;;;;;;122.43;10.45;;;;;;;;;;5025046;28;20443;-48
2022/01/01 03:45:16;;;;;;;89.75;12.88;;;;;;;;;;5026682;28;20069;-53
2022/01/01 03:47:42;;;;;;;69.65;11.00;;;;;;;;;;5027648;28;20061;-52
2022/01/01 03:50:08;;;;;;;38.92;10.07;;;;;;;;;;5037367;28;20115;-55
2022/01/01 03:52:34;;;;;;;134.27;11.13;;;;;;;;;;5030785;28;20145;-51
2022/01/01 03:55:01;;;;;;;81.70;7.35;;;;;;;;;;5030622;28;20041;-49
2022/01/01 03:57:27;;;;;;;97.47;9.57;;;;;;;;;;5034583;28;20030;-52
2022/01/01 03:59:53;;;;;;;69.13;8.65;;;;;;;;;;5024917;28;20084;-51
2022/01/01 04:02:18;;;;;;;80.28;8.35;;;;;;;;;;5033852;28;20029;-50
2022/01/01 04:04:44;;;;;;;126.10;9.02;;;;;;;;;;5027787;28;20639;-52
2022/01/01 04:07:10;;;;;;;66.47;8.27;;;;;;;;;;5029589;28;20033;-54
2022/01/01 04:09:36;;;;;;;43.38;8.77;;;;;;;;;;5031270;28;20075;-52
2022/01/01 04:12:02;;;;;;;62.78;8.77;;;;;;;;;;5032804;28;20056;-55
2022/01/01 04:14:28;;;;;;;37.90;8.88;;;;;;;;;;5027336;28;20033;-49
2022/01/01 04:16:54;;;;;;;61.75;8.38;;;;;;;;;;5024998;28;20033;-49
2022/01/01 04:19:27;;;;;;;29.30;7.47;;;;;;;;;;5033592;28;20055;-53
2022/01/01 04:21:52;;;;;;;20.60;6.82;;;;;;;;;;5024652;28;20208;-52
2022/01/01 04:24:18;;;;;;;17.60;6.70;;;;;;;;;;5036617;28;20029;-51
2022/01/01 04:26:44;;;;;;;14.00;7.35;;;;;;;;;;5033897;28;20033;-56
2022/01/01 04:29:10;;;;;;;45.45;7.43;;;;;;;;;;5030809;28;20029;-49
2022/01/01 04:31:36;;;;;;;16.13;7.40;;;;;;;;;;5023926;28;20068;-48
2022/01/01 04:34:02;;;;;;;26.15;7.18;;;;;;;;;;5025848;28;20060;-53
2022/01/01 04:36:27;;;;;;;24.20;7.90;;;;;;;;;;5032689;28;20029;-53
2022/01/01 04:38:53;;;;;;;14.68;7.35;;;;;;;;;;5030680;28;20117;-48
2022/01/01 04:41:19;;;;;;;27.65;6.95;;;;;;;;;;5026295;28;20028;-51
2022/01/01 04:43:46;;;;;;;14.75;8.10;;;;;;;;;;5031340;28;20041;-48
2022/01/01 04:46:12;;;;;;;24.50;7.57;;;;;;;;;;5025347;28;20104;-49
2022/01/01 04:48:40;;;;;;;34.95;8.45;;;;;;;;;;5026848;28;20595;-50
2022/01/01 04:51:08;;;;;;;22.17;7.25;;;;;;;;;;5021848;28;20515;-49
2022/01/01 04:53:34;;;;;;;10.65;7.70;;;;;;;;;;5028834;28;20041;-49
2022/01/01 04:56:04;;;;;;;22.83;8.10;;;;;;;;;;5023486;28;20486;-50
2022/01/01 04:58:30;;;;;;;26.95;8.70;;;;;;;;;;5024636;28;20048;-53
2022/01/01 05:00:56;;;;;;;22.15;8.07;;;;;;;;;;5030637;28;20048;-48
2022/01/01 05:03:21;;;;;;;27.88;6.90;;;;;;;;;;5028380;28;20040;-51
2022/01/01 05:05:47;;;;;;;14.80;7.30;;;;;;;;;;5031209;28;20029;-49
2022/01/01 05:08:13;;;;;;;11.98;7.82;;;;;;;;;;5034843;28;20037;-49
2022/01/01 05:10:39;;;;;;;15.77;8.85;;;;;;;;;;5028008;28;20055;-53
2022/01/01 05:13:04;;;;;;;21.92;8.93;;;;;;;;;;5027897;28;20487;-53
2022/01/01 05:15:30;;;;;;;14.73;7.80;;;;;;;;;;5023939;28;20466;-53
2022/01/01 05:17:57;;;;;;;14.95;7.63;;;;;;;;;;5028372;28;20112;-49
2022/01/01 05:20:22;;;;;;;55.08;8.77;;;;;;;;;;5025856;28;20048;-53
2022/01/01 05:22:48;;;;;;;28.83;9.00;;;;;;;;;;5027769;28;20037;-51
2022/01/01 05:25:14;;;;;;;31.75;9.77;;;;;;;;;;5025184;28;20038;-50
2022/01/01 05:27:40;;;;;;;31.73;9.52;;;;;;;;;;5031737;28;20032;-49
2022/01/01 05:30:07;;;;;;;44.70;9.70;;;;;;;;;;5021229;28;20044;-50
2022/01/01 05:32:33;;;;;;;17.23;10.20;;;;;;;;;;5026481;28;20044;-51
2022/01/01 05:34:59;;;;;;;19.58;9.90;;;;;;;;;;5026207;28;20033;-50
2022/01/01 05:37:25;;;;;;;28.20;10.18;;;;;;;;;;5028420;28;20124;-49
2022/01/01 05:39:51;;;;;;;24.23;8.85;;;;;;;;;;5019186;28;20029;-51
2022/01/01 05:42:16;;;;;;;36.90;9.50;;;;;;;;;;5032725;28;20087;-50
2022/01/01 05:44:42;;;;;;;16.60;8.77;;;;;;;;;;5026488;28;20117;-52
2022/01/01 05:47:08;;;;;;;14.00;9.75;;;;;;;;;;5030695;28;20064;-49
2022/01/01 05:49:34;;;;;;;33.10;9.80;;;;;;;;;;5027366;28;20112;-50
2022/01/01 05:52:00;;;;;;;17.13;9.18;;;;;;;;;;5022380;28;20029;-50
2022/01/01 05:54:25;;;;;;;19.90;10.23;;;;;;;;;;5030165;28;20037;-50
2022/01/01 05:56:51;;;;;;;18.92;10.00;;;;;;;;;;5027474;28;20033;-48
2022/01/01 05:59:17;;;;;;;31.55;10.57;;;;;;;;;;5033133;28;20025;-50
2022/01/01 06:01:43;;;;;;;42.28;10.57;;;;;;;;;;5030795;28;20041;-49
2022/01/01 06:04:08;;;;;;;39.45;10.30;;;;;;;;;;5040431;28;20033;-50
2022/01/01 06:06:34;;;;;;;20.15;11.10;;;;;;;;;;5033362;28;20029;-54
2022/01/01 06:09:00;;;;;;;23.00;9.70;;;;;;;;;;5032457;28;20036;-51
2022/01/01 06:11:26;;;;;;;22.88;11.15;;;;;;;;;;5029355;28;20034;-52
2022/01/01 06:13:51;;;;;;;22.15;9.00;;;;;;;;;;5026453;28;20577;-49
2022/01/01 06:16:17;;;;;;;17.83;9.13;;;;;;;;;;5023950;28;20033;-52
2022/01/01 06:18:43;;;;;;;15.35;8.48;;;;;;;;;;5023590;28;20052;-49
2022/01/01 06:21:09;;;;;;;16.75;8.65;;;;;;;;;;5030846;28;20033;-50
2022/01/01 06:23:39;;;;;;;23.63;8.95;;;;;;;;;;5024927;28;20033;-49
2022/01/01 06:26:06;;;;;;;11.40;8.00;;;;;;;;;;5028398;28;20385;-48
2022/01/01 06:28:32;;;;;;;15.82;8.98;;;;;;;;;;5030794;28;20091;-49
2022/01/01 06:30:58;;;;;;;20.08;9.23;;;;;;;;;;5030507;28;20467;-51
2022/01/01 06:33:24;;;;;;;16.55;9.65;;;;;;;;;;5031686;28;20025;-51
2022/01/01 06:35:50;;;;;;;17.27;10.38;;;;;;;;;;5030277;28;20096;-55
2022/01/01 06:38:16;;;;;;;16.63;10.07;;;;;;;;;;5032073;28;20120;-49
2022/01/01 06:40:44;;;;;;;19.30;10.55;;;;;;;;;;5033059;28;20021;-52
2022/01/01 06:43:13;;;;;;;14.10;9.73;;;;;;;;;;5026333;28;20065;-53
2022/01/01 06:45:39;;;;;;;15.63;10.15;;;;;;;;;;5034005;28;20040;-50
2022/01/01 06:48:05;;;;;;;18.27;10.60;;;;;;;;;;5036036;28;20041;-54
2022/01/01 06:50:32;;;;;;;20.60;10.60;;;;;;;;;;5033731;28;20063;-51
2022/01/01 06:52:58;;;;;;;19.30;10.27;;;;;;;;;;5035398;28;20025;-49
2022/01/01 06:55:24;;;;;;;19.02;10.77;;;;;;;;;;5030081;28;20041;-50
2022/01/01 06:57:49;;;;;;;21.08;10.65;;;;;;;;;;5027304;28;20033;-51
2022/01/01 07:00:16;;;;;;;16.05;10.70;;;;;;;;;;5028345;28;20506;-48
2022/01/01 07:02:44;;;;;;;23.92;10.93;;;;;;;;;;5032870;28;20398;-51
2022/01/01 07:05:11;;;;;;;20.65;11.43;;;;;;;;;;5026676;28;20627;-50
2022/01/01 07:07:38;;;;;;;19.40;10.63;;;;;;;;;;5030086;28;20044;-50
2022/01/01 07:10:06;;;;;;;18.73;11.07;;;;;;;;;;5030584;28;20048;-49
2022/01/01 07:12:33;;;;;;;24.75;12.20;;;;;;;;;;5031813;28;20033;-49
2022/01/01 07:14:59;;;;;;;19.02;11.35;;;;;;;;;;5026986;28;20140;-50
2022/01/01 07:17:25;;;;;;;16.13;10.30;;;;;;;;;;5057530;28;20120;-48
2022/01/01 07:19:50;;;;;;;18.38;10.77;;;;;;;;;;5032157;28;20045;-51
2022/01/01 07:22:16;;;;;;;17.15;10.60;;;;;;;;;;5027147;28;20115;-52
2022/01/01 07:24:42;;;;;;;15.75;10.95;;;;;;;;;;5033261;28;20034;-48
2022/01/01 07:27:08;;;;;;;16.67;10.48;;;;;;;;;;5026656;28;20029;-49
2022/01/01 07:29:33;;;;;;;20.15;10.90;;;;;;;;;;5033528;28;20119;-50
2022/01/01 07:31:59;;;;;;;19.67;11.05;;;;;;;;;;5028411;28;20114;-50
2022/01/01 07:34:24;;;;;;;17.85;10.65;;;;;;;;;;5033436;28;20098;-53
2022/01/01 07:36:50;;;;;;;18.33;9.82;;;;;;;;;;5034249;28;20482;-48
2022/01/01 07:39:16;;;;;;;15.70;10.07;;;;;;;;;;5039501;28;20560;-52
2022/01/01 07:41:42;;;;;;;17.60;10.45;;;;;;;;;;5032300;28;20652;-52
2022/01/01 07:44:09;;;;;;;18.15;9.88;;;;;;;;;;5027577;28;20061;-49
2022/01/01 07:46:35;;;;;;;16.52;10.65;;;;;;;;;;5025256;28;20048;-49
2022/01/01 07:49:01;;;;;;;13.70;9.48;;;;;;;;;;5032381;28;20044;-50
2022/01/01 07:51:26;;;;;;;15.85;10.07;;;;;;;;;;5033946;28;20408;-52
2022/01/01 07:53:52;;;;;;;20.85;10.43;;;;;;;;;;5030396;28;20487;-52
2022/01/01 07:56:18;;;;;;;15.65;10.07;;;;;;;;;;5032225;28;20371;-49
2022/01/01 07:58:43;;;;;;;14.90;9.60;;;;;;;;;;5028021;28;20030;-53
2022/01/01 08:01:09;;;;;;;12.90;9.52;;;;;;;;;;5030366;28;20045;-53
2022/01/01 08:03:35;;;;;;;13.68;9.25;;;;;;;;;;5034631;28;20152;-51
2022/01/01 08:06:01;;;;;;;13.63;9.25;;;;;;;;;;5038747;28;20072;-49
2022/01/01 08:08:26;;;;;;;16.48;10.15;;;;;;;;;;5031219;28;20037;-51
2022/01/01 08:10:52;;;;;;;16.15;9.82;;;;;;;;;;5028346;28;20499;-51
2022/01/01 08:13:25;;;;;;;18.38;10.23;;;;;;;;;;5029531;28;20037;-51
2022/01/01 08:15:52;;;;;;;21.40;9.43;;;;;;;;;;5029632;28;21534;-48
2022/01/01 08:18:18;;;;;;;15.32;9.48;;;;;;;;;;5037329;28;20029;-49
2022/01/01 08:20:44;;;;;;;17.55;9.95;;;;;;;;;;5032822;28;20444;-50
2022/01/01 08:23:10;;;;;;;14.95;9.40;;;;;;;;;;5029695;28;20029;-48
2022/01/01 08:25:36;;;;;;;14.80;9.52;;;;;;;;;;5033186;28;20020;-49
2022/01/01 08:28:03;;;;;;;17.83;9.23;;;;;;;;;;5027819;28;20425;-50
2022/01/01 08:30:28;;;;;;;14.75;9.27;;;;;;;;;;5029016;28;20022;-51
2022/01/01 08:33:01;;;;;;;17.17;10.15;;;;;;;;;;5022970;28;20394;-50
2022/01/01 08:35:31;;;;;;;;;;;;;;;;;;5035740;28;20030;-48
2022/01/01 08:37:57;;;;;;;15.85;8.98;;;;;;;;;;5034252;28;19917;-50
2022/01/01 08:40:27;;;;;;;19.23;9.68;;;;;;;;;;5027443;28;20044;-51
2022/01/01 08:42:52;;;;;;;17.00;9.52;;;;;;;;;;5030492;28;20053;-54
2022/01/01 08:45:18;;;;;;;16.17;9.45;;;;;;;;;;5029787;28;20090;-48
2022/01/01 08:47:44;;;;;;;15.50;9.68;;;;;;;;;;5033100;28;20038;-48
2022/01/01 08:50:10;;;;;;;16.83;10.23;;;;;;;;;;5029212;28;20489;-50
2022/01/01 08:52:36;;;;;;;14.60;9.90;;;;;;;;;;5031716;28;20024;-49
2022/01/01 08:55:02;;;;;;;15.05;8.63;;;;;;;;;;5025939;28;20040;-49
2022/01/01 08:57:32;;;;;;;20.85;12.05;;;;;;;;;;5027236;28;20030;-50
2022/01/01 09:00:04;;;;;;;14.77;8.80;;;;;;;;;;5026159;28;20032;-49
2022/01/01 09:02:33;;;;;;;13.82;8.60;;;;;;;;;;5027799;28;20037;-50
2022/01/01 09:04:59;;;;;;;18.40;9.07;;;;;;;;;;5027188;28;20048;-48
2022/01/01 09:07:28;;;;;;;18.63;10.10;;;;;;;;;;5031148;28;20036;-48
2022/01/01 09:10:01;;;;;;;19.55;8.95;;;;;;;;;;5019680;28;20037;-56
2022/01/01 09:12:29;;;;;;;16.20;9.88;;;;;;;;;;5022595;28;20034;-51
2022/01/01 09:14:55;;;;;;;20.08;10.25;;;;;;;;;;5026765;28;20086;-51
2022/01/01 09:17:22;;;;;;;20.33;10.57;;;;;;;;;;5056763;28;20033;-52
2022/01/01 09:19:48;;;;;;;15.63;9.02;;;;;;;;;;5026758;28;20490;-48
2022/01/01 09:22:14;;;;;;;20.13;9.88;;;;;;;;;;5032169;28;20029;-50
2022/01/01 09:24:40;;;;;;;18.98;10.90;;;;;;;;;;5033995;28;20037;-49
2022/01/01 09:27:06;;;;;;;21.17;10.52;;;;;;;;;;5028140;28;20064;-49
2022/01/01 09:29:32;;;;;;;16.65;9.52;;;;;;;;;;5030527;28;20052;-49
2022/01/01 09:31:58;;;;;;;14.50;8.52;;;;;;;;;;5032196;28;20029;-48
2022/01/01 09:34:23;;;;;;;16.88;8.65;;;;;;;;;;5030793;28;20033;-51
2022/01/01 09:36:50;;;;;;;11.93;7.22;;;;;;;;;;5033663;28;20030;-53
2022/01/01 09:39:17;;;;;;;9.85;7.05;;;;;;;;;;5032612;28;20029;-48
2022/01/01 09:41:43;;;;;;;14.20;7.00;;;;;;;;;;5029417;28;20040;-49
2022/01/01 09:44:18;;;;;;;17.65;8.27;;;;;;;;;;5024458;28;20734;-50
2022/01/01 09:46:47;;;;;;;13.18;8.05;;;;;;;;;;5027021;28;20036;-51
2022/01/01 09:49:14;;;;;;;17.00;8.55;;;;;;;;;;5028699;28;20116;-53
2022/01/01 09:51:41;;;;;;;16.33;7.53;;;;;;;;;;5030012;28;20030;-53
2022/01/01 09:54:07;;;;;;;14.30;8.05;;;;;;;;;;5031910;28;20021;-49
2022/01/01 09:56:33;;;;;;;15.65;7.80;;;;;;;;;;5035640;28;20033;-51
2022/01/01 09:58:58;;;;;;;14.82;8.27;;;;;;;;;;5026013;28;20132;-50
2022/01/01 10:01:24;;;;;;;15.57;8.52;;;;;;;;;;5033338;28;20034;-49
2022/01/01 10:03:51;;;;;;;18.80;9.77;;;;;;;;;;5031373;28;20394;-51
2022/01/01 10:06:19;;;;;;;15.05;8.40;;;;;;;;;;5035342;28;20029;-49
2022/01/01 10:08:55;;;;;;;19.67;9.60;;;;;;;;;;5029691;28;20083;-48
2022/01/01 10:11:22;;;;;;;17.73;8.93;;;;;;;;;;5035836;28;20041;-48
2022/01/01 10:13:48;;;;;;;21.88;10.52;;;;;;;;;;5036203;28;20021;-54
2022/01/01 10:16:15;;;;;;;20.38;9.70;;;;;;;;;;5031959;28;20706;-53
2022/01/01 10:18:48;;;;;;;18.65;9.85;;;;;;;;;;5025766;28;20387;-48
2022/01/01 10:21:17;;;;;;;20.83;10.98;;;;;;;;;;5034766;28;20087;-49
2022/01/01 10:23:45;;;;;;;28.50;11.50;;;;;;;;;;5039233;28;20025;-48
2022/01/01 10:29:26;;;;;;;22.48;10.07;;;;;;;;;;5032482;28;20029;-56
2022/01/01 10:32:09;;;;;;;26.85;11.98;;;;;;;;;;5030807;28;20360;-51
2022/01/01 10:34:36;;;;;;;;;;;;;;;;;;5030975;28;20033;-51
2022/01/01 10:37:05;;;;;;;29.80;12.52;;;;;;;;;;5030629;28;19917;-53
2022/01/01 10:39:31;;;;;;;24.13;12.27;;;;;;;;;;5029003;28;20029;-48
2022/01/01 10:42:05;;;;;;;26.00;12.80;;;;;;;;;;5038518;28;20071;-50
2022/01/01 10:44:39;;;;;;;25.83;13.48;;;;;;;;;;5030330;28;20112;-52
2022/01/01 10:47:28;;;;;;;27.80;13.55;;;;;;;;;;5033075;28;20039;-53
2022/01/01 10:50:14;;;;;;;27.35;13.50;;;;;;;;;;5024421;28;20427;-48
2022/01/01 10:52:45;;;;;;;28.13;13.85;;;;;;;;;;5028992;28;20104;-49
2022/01/01 10:55:11;;;;;;;28.90;13.70;;;;;;;;;;5033436;28;20037;-50
2022/01/01 10:57:41;;;;;;;25.88;14.32;;;;;;;;;;5027014;28;20475;-54
2022/01/01 11:00:15;;;;;;;31.30;13.25;;;;;;;;;;5032889;28;20034;-51
2022/01/01 11:02:53;;;;;;;31.17;14.25;;;;;;;;;;5032263;28;20025;-49
2022/01/01 11:05:36;;;;;;;28.30;13.70;;;;;;;;;;5026428;28;20056;-49
2022/01/01 11:08:05;;;;;;;29.05;14.63;;;;;;;;;;5027684;28;20048;-48
2022/01/01 11:10:31;;;;;;;33.75;16.00;;;;;;;;;;5031316;28;20689;-51
2022/01/01 11:13:00;;;;;;;28.35;14.25;;;;;;;;;;5025683;28;20045;-50
2022/01/01 11:15:27;;;;;;;28.13;16.25;;;;;;;;;;5034588;28;20522;-50
2022/01/01 11:17:54;;;;;;;32.72;15.98;;;;;;;;;;5034434;28;20482;-53
2022/01/01 11:20:20;;;;;;;32.15;14.95;;;;;;;;;;5025162;28;20053;-49
2022/01/01 11:22:47;;;;;;;33.83;15.43;;;;;;;;;;5029924;28;20028;-56
2022/01/01 11:25:13;;;;;;;38.33;16.25;;;;;;;;;;5032385;28;20036;-52
2022/01/01 11:27:39;;;;;;;35.40;15.98;;;;;;;;;;5042084;28;20038;-51
2022/01/01 11:30:08;;;;;;;38.47;16.63;;;;;;;;;;5034971;28;20056;-57
2022/01/01 11:32:50;;;;;;;40.10;16.92;;;;;;;;;;5024878;28;20026;-49
2022/01/01 11:35:19;;;;;;;43.72;17.35;;;;;;;;;;5031788;28;20040;-52
2022/01/01 11:38:06;;;;;;;39.47;17.25;;;;;;;;;;5033739;28;20470;-55
2022/01/01 11:40:40;;;;;;;39.60;17.55;;;;;;;;;;5030794;28;20055;-50
2022/01/01 11:43:27;;;;;;;39.00;17.48;;;;;;;;;;5026998;28;20040;-54
2022/01/01 11:45:57;;;;;;;38.40;17.42;;;;;;;;;;5030930;28;20049;-53
2022/01/01 11:48:26;;;;;;;35.97;17.30;;;;;;;;;;5035779;28;20048;-52
2022/01/01 11:50:52;;;;;;;45.35;18.50;;;;;;;;;;5025818;28;20057;-52
2022/01/01 11:53:31;;;;;;;43.65;20.13;;;;;;;;;;5023097;28;20091;-48
2022/01/01 11:56:13;;;;;;;43.47;19.42;;;;;;;;;;5028279;28;20084;-55
2022/01/01 11:58:49;;;;;;;98.43;46.67;;;;;;;;;;5025133;28;20033;-52
2022/01/01 12:01:16;;;;;;;76.03;37.15;;;;;;;;;;5024633;28;20030;-51
2022/01/01 12:03:50;;;;;;;40.28;20.13;;;;;;;;;;5034169;28;20057;-55
2022/01/01 12:06:17;;;;;;;46.15;20.15;;;;;;;;;;5032547;28;20536;-51
2022/01/01 12:08:46;;;;;;;41.85;18.95;;;;;;;;;;5032876;28;20049;-50
2022/01/01 12:11:28;;;;;;;49.38;23.30;;;;;;;;;;5032230;28;20447;-49
2022/01/01 12:13:58;;;;;;;52.97;26.13;;;;;;;;;;5024370;28;20037;-57
2022/01/01 12:16:25;;;;;;;53.55;24.88;;;;;;;;;;5027832;28;20109;-53
2022/01/01 12:19:05;;;;;;;45.40;20.30;;;;;;;;;;5030011;28;20147;-53
2022/01/01 12:22:02;;;;;;;41.35;19.38;;;;;;;;;;5035909;28;20037;-48
2022/01/01 12:24:27;;;;;;;42.65;18.92;;;;;;;;;;5027153;28;20116;-55
2022/01/01 12:26:53;;;;;;;37.00;17.15;;;;;;;;;;5029583;28;20128;-51
2022/01/01 12:29:24;;;;;;;38.38;17.13;;;;;;;;;;5023969;28;20058;-50
2022/01/01 12:31:58;;;;;;;30.95;16.50;;;;;;;;;;5024595;28;20071;-49
2022/01/01 12:34:24;;;;;;;33.25;18.67;;;;;;;;;;5030806;28;20037;-55
2022/01/01 12:36:52;;;;;;;38.70;17.52;;;;;;;;;;5026678;28;20037;-53
2022/01/01 12:39:18;;;;;;;33.10;15.30;;;;;;;;;;5036497;28;20065;-48
2022/01/01 12:41:45;;;;;;;28.40;13.48;;;;;;;;;;5034322;28;20438;-49
2022/01/01 12:44:13;;;;;;;26.05;14.30;;;;;;;;;;5031775;28;20539;-55
2022/01/01 12:46:44;;;;;;;21.20;12.32;;;;;;;;;;5026396;28;20030;-55
2022/01/01 12:49:10;;;;;;;24.88;13.82;;;;;;;;;;5024954;28;20056;-51
2022/01/01 12:51:39;;;;;;;25.35;12.88;;;;;;;;;;5027993;28;20022;-52
2022/01/01 12:54:16;;;;;;;27.70;12.55;;;;;;;;;;5035632;28;20033;-55
2022/01/01 12:56:44;;;;;;;25.25;12.93;;;;;;;;;;5026025;28;20370;-54
2022/01/01 12:59:13;;;;;;;45.50;23.38;;;;;;;;;;5019639;28;20386;-53
2022/01/01 13:01:44;;;;;;;38.45;20.73;;;;;;;;;;5030001;28;20543;-56
2022/01/01 13:04:25;;;;;;;34.78;17.65;;;;;;;;;;5024121;28;20021;-51
2022/01/01 13:06:57;;;;;;;21.85;11.55;;;;;;;;;;5029904;28;20121;-55
2022/01/01 13:09:24;;;;;;;21.25;11.88;;;;;;;;;;5023285;28;20033;-55
2022/01/01 13:11:57;;;;;;;23.40;12.10;;;;;;;;;;5031611;28;20112;-54
2022/01/01 13:14:28;;;;;;;28.05;13.65;;;;;;;;;;5027597;28;20048;-56
2022/01/01 13:16:54;;;;;;;19.08;10.38;;;;;;;;;;5029942;28;20483;-53
2022/01/01 13:19:21;;;;;;;16.35;9.60;;;;;;;;;;5029258;28;20048;-53
2022/01/01 13:21:47;;;;;;;18.83;9.63;;;;;;;;;;5028852;28;20032;-53
2022/01/01 13:24:13;;;;;;;20.00;10.32;;;;;;;;;;5045644;28;20471;-52
2022/01/01 13:26:39;;;;;;;18.42;9.90;;;;;;;;;;5030104;28;20033;-55
2022/01/01 13:29:06;;;;;;;16.45;8.98;;;;;;;;;;5027853;28;20549;-53
2022/01/01 13:31:35;;;;;;;20.60;10.85;;;;;;;;;;5030618;28;20029;-54
2022/01/01 13:34:02;;;;;;;22.50;11.68;;;;;;;;;;5027752;28;20061;-55
2022/01/01 13:36:38;;;;;;;26.48;14.70;;;;;;;;;;5041803;28;20034;-54
2022/01/01 13:39:09;;;;;;;27.95;15.05;;;;;;;;;;5029301;28;20042;-53
2022/01/01 13:41:40;;;;;;;31.23;15.63;;;;;;;;;;5032388;28;20030;-55
2022/01/01 13:44:22;;;;;;;40.20;16.77;;;;;;;;;;5026470;28;20047;-54
2022/01/01 13:46:49;;;;;;;26.90;14.20;;;;;;;;;;5029186;28;20029;-55
2022/01/01 13:49:16;;;;;;;28.65;13.75;;;;;;;;;;5022910;28;20084;-55
2022/01/01 13:51:41;;;;;;;21.25;11.63;;;;;;;;;;5019764;28;20104;-55
2022/01/01 13:54:10;;;;;;;21.73;12.35;;;;;;;;;;5026436;28;20120;-56
2022/01/01 13:56:37;;;;;;;28.83;15.00;;;;;;;;;;5028788;28;20036;-55
2022/01/01 13:59:04;;;;;;;34.40;16.38;;;;;;;;;;5027343;28;20032;-54
2022/01/01 14:01:34;;;;;;;29.38;14.82;;;;;;;;;;5028102;28;20041;-54
2022/01/01 14:04:02;;;;;;;30.08;18.42;;;;;;;;;;5030471;28;20034;-55
2022/01/01 14:06:28;;;;;;;27.55;15.73;;;;;;;;;;5031873;28;20037;-54
2022/01/01 14:09:00;;;;;;;23.83;14.20;;;;;;;;;;5031077;28;20430;-56
2022/01/01 14:11:39;;;;;;;20.52;14.75;;;;;;;;;;5028454;28;20079;-54
2022/01/01 14:14:09;;;;;;;27.60;15.05;;;;;;;;;;5028821;28;20047;-48
2022/01/01 14:17:07;;;;;;;21.13;11.65;;;;;;;;;;5027169;28;20039;-48
2022/01/01 14:19:33;;;;;;;19.30;11.82;;;;;;;;;;5026558;28;20116;-49
2022/01/01 14:22:12;;;;;;;21.20;11.05;;;;;;;;;;5024820;28;20112;-48
2022/01/01 14:24:50;;;;;;;19.63;11.23;;;;;;;;;;5020328;28;20030;-53
2022/01/01 14:27:16;;;;;;;18.20;11.05;;;;;;;;;;5032224;28;20044;-49
2022/01/01 14:29:42;;;;;;;18.70;9.75;;;;;;;;;;5030267;28;20021;-48